sensor_id;sensor_type;location;lat;lon;timestamp;pressure;altitude;pressure_sealevel;temperature;humidity
37368;BME280;23240;43.210;27.910;2023-03-18T00:01:12;101649.16;;;7.12;51.07
37368;BME280;23240;43.210;27.910;2023-03-18T00:03:37;101653.00;;;7.06;51.43
37368;BME280;23240;43.210;27.910;2023-03-18T00:06:07;101643.34;;;7.04;51.60
37368;BME280;23240;43.210;27.910;2023-03-18T00:08:32;101645.88;;;7.07;51.05
37368;BME280;23240;43.210;27.910;2023-03-18T00:10:58;101647.06;;;7.01;51.37
37368;BME280;23240;43.210;27.910;2023-03-18T00:13:24;101646.41;;;6.96;51.53
37368;BME280;23240;43.210;27.910;2023-03-18T00:15:50;101642.84;;;6.97;51.72
37368;BME280;23240;43.210;27.910;2023-03-18T00:18:16;101642.50;;;6.86;51.80
37368;BME280;23240;43.210;27.910;2023-03-18T00:20:41;101637.50;;;6.80;52.20
37368;BME280;23240;43.210;27.910;2023-03-18T00:23:07;101644.72;;;6.78;52.13
37368;BME280;23240;43.210;27.910;2023-03-18T00:25:33;101643.06;;;6.75;52.65
37368;BME280;23240;43.210;27.910;2023-03-18T00:27:58;101638.78;;;6.73;53.17
37368;BME280;23240;43.210;27.910;2023-03-18T00:30:24;101639.41;;;6.78;53.16
37368;BME280;23240;43.210;27.910;2023-03-18T00:32:50;101638.16;;;6.67;52.95
37368;BME280;23240;43.210;27.910;2023-03-18T00:35:15;101626.94;;;6.61;53.37
37368;BME280;23240;43.210;27.910;2023-03-18T00:37:41;101626.22;;;6.57;53.80
37368;BME280;23240;43.210;27.910;2023-03-18T00:40:08;101628.13;;;6.55;53.23
37368;BME280;23240;43.210;27.910;2023-03-18T00:42:36;101625.69;;;6.51;53.54
37368;BME280;23240;43.210;27.910;2023-03-18T00:45:07;101629.16;;;6.53;53.60
37368;BME280;23240;43.210;27.910;2023-03-18T00:47:33;101630.28;;;6.47;53.99
37368;BME280;23240;43.210;27.910;2023-03-18T00:49:59;101618.56;;;6.51;54.08
37368;BME280;23240;43.210;27.910;2023-03-18T00:52:25;101616.50;;;6.56;54.60
37368;BME280;23240;43.210;27.910;2023-03-18T00:54:51;101631.53;;;6.57;53.66
37368;BME280;23240;43.210;27.910;2023-03-18T00:57:16;101625.44;;;6.55;53.77
37368;BME280;23240;43.210;27.910;2023-03-18T00:59:43;101624.91;;;6.49;54.74
37368;BME280;23240;43.210;27.910;2023-03-18T01:02:08;101611.59;;;6.49;54.31
37368;BME280;23240;43.210;27.910;2023-03-18T01:04:34;101625.81;;;6.48;54.53
37368;BME280;23240;43.210;27.910;2023-03-18T01:06:59;101626.72;;;6.48;54.63
37368;BME280;23240;43.210;27.910;2023-03-18T01:09:25;101611.84;;;6.44;55.33
37368;BME280;23240;43.210;27.910;2023-03-18T01:11:50;101619.19;;;6.39;56.16
37368;BME280;23240;43.210;27.910;2023-03-18T01:14:15;101622.53;;;6.42;56.52
37368;BME280;23240;43.210;27.910;2023-03-18T01:16:41;101630.47;;;6.44;56.31
37368;BME280;23240;43.210;27.910;2023-03-18T01:19:07;101614.16;;;6.33;56.52
37368;BME280;23240;43.210;27.910;2023-03-18T01:21:33;101619.34;;;6.36;56.83
37368;BME280;23240;43.210;27.910;2023-03-18T01:23:59;101621.75;;;6.40;56.55
37368;BME280;23240;43.210;27.910;2023-03-18T01:26:28;101616.53;;;6.39;56.77
37368;BME280;23240;43.210;27.910;2023-03-18T01:28:54;101612.34;;;6.33;57.17
37368;BME280;23240;43.210;27.910;2023-03-18T01:31:19;101606.41;;;6.28;57.14
37368;BME280;23240;43.210;27.910;2023-03-18T01:33:44;101614.47;;;6.27;57.30
37368;BME280;23240;43.210;27.910;2023-03-18T01:36:10;101610.19;;;6.24;58.05
37368;BME280;23240;43.210;27.910;2023-03-18T01:38:36;101614.69;;;6.22;58.07
37368;BME280;23240;43.210;27.910;2023-03-18T01:41:01;101608.66;;;6.18;58.13
37368;BME280;23240;43.210;27.910;2023-03-18T01:43:30;101609.28;;;6.24;58.69
37368;BME280;23240;43.210;27.910;2023-03-18T01:45:56;101626.41;;;6.18;58.87
37368;BME280;23240;43.210;27.910;2023-03-18T01:48:23;101616.81;;;6.15;58.67
37368;BME280;23240;43.210;27.910;2023-03-18T01:50:51;101618.53;;;6.16;59.70
37368;BME280;23240;43.210;27.910;2023-03-18T01:53:17;101619.59;;;6.12;59.48
37368;BME280;23240;43.210;27.910;2023-03-18T01:55:44;101625.31;;;6.05;59.44
37368;BME280;23240;43.210;27.910;2023-03-18T01:58:21;101621.75;;;6.04;60.15
37368;BME280;23240;43.210;27.910;2023-03-18T02:00:52;101621.78;;;5.85;60.84
37368;BME280;23240;43.210;27.910;2023-03-18T02:03:19;101633.56;;;5.80;61.97
37368;BME280;23240;43.210;27.910;2023-03-18T02:05:47;101627.25;;;5.63;61.77
37368;BME280;23240;43.210;27.910;2023-03-18T02:08:14;101632.56;;;5.63;62.60
37368;BME280;23240;43.210;27.910;2023-03-18T02:10:39;101627.25;;;5.63;61.91
37368;BME280;23240;43.210;27.910;2023-03-18T02:13:06;101633.81;;;5.56;62.85
37368;BME280;23240;43.210;27.910;2023-03-18T02:15:31;101632.06;;;5.55;63.47
37368;BME280;23240;43.210;27.910;2023-03-18T02:18:11;101624.25;;;5.52;64.10
37368;BME280;23240;43.210;27.910;2023-03-18T02:20:39;101623.38;;;5.52;64.09
37368;BME280;23240;43.210;27.910;2023-03-18T02:28:17;101622.19;;;5.20;65.87
37368;BME280;23240;43.210;27.910;2023-03-18T02:30:51;101622.69;;;5.09;66.62
37368;BME280;23240;43.210;27.910;2023-03-18T02:33:18;101616.75;;;5.02;67.33
37368;BME280;23240;43.210;27.910;2023-03-18T02:35:46;101616.25;;;4.94;67.54
37368;BME280;23240;43.210;27.910;2023-03-18T02:38:15;101618.44;;;4.84;68.74
37368;BME280;23240;43.210;27.910;2023-03-18T02:40:41;101613.25;;;4.81;70.49
37368;BME280;23240;43.210;27.910;2023-03-18T02:48:14;101622.03;;;4.63;73.53
37368;BME280;23240;43.210;27.910;2023-03-18T02:50:41;101625.31;;;4.48;74.71
37368;BME280;23240;43.210;27.910;2023-03-18T02:53:09;101619.16;;;4.47;74.68
37368;BME280;23240;43.210;27.910;2023-03-18T02:55:35;101629.47;;;4.33;76.98
37368;BME280;23240;43.210;27.910;2023-03-18T02:58:00;101619.41;;;4.21;78.24
37368;BME280;23240;43.210;27.910;2023-03-18T03:00:26;101625.59;;;4.20;78.81
37368;BME280;23240;43.210;27.910;2023-03-18T03:02:51;101622.16;;;4.18;80.44
37368;BME280;23240;43.210;27.910;2023-03-18T03:05:16;101624.56;;;4.24;79.08
37368;BME280;23240;43.210;27.910;2023-03-18T03:07:42;101621.16;;;4.20;79.25
37368;BME280;23240;43.210;27.910;2023-03-18T03:10:07;101626.88;;;4.11;79.41
37368;BME280;23240;43.210;27.910;2023-03-18T03:12:33;101620.66;;;4.10;80.02
37368;BME280;23240;43.210;27.910;2023-03-18T03:14:58;101629.22;;;3.97;82.08
37368;BME280;23240;43.210;27.910;2023-03-18T03:17:23;101626.59;;;3.95;81.58
37368;BME280;23240;43.210;27.910;2023-03-18T03:19:49;101625.66;;;3.96;83.24
37368;BME280;23240;43.210;27.910;2023-03-18T03:22:15;101626.75;;;3.92;84.00
37368;BME280;23240;43.210;27.910;2023-03-18T03:24:41;101622.53;;;3.86;82.65
37368;BME280;23240;43.210;27.910;2023-03-18T03:27:07;101620.81;;;3.85;82.22
37368;BME280;23240;43.210;27.910;2023-03-18T03:29:32;101626.16;;;3.84;85.34
37368;BME280;23240;43.210;27.910;2023-03-18T03:31:57;101617.41;;;3.82;84.48
37368;BME280;23240;43.210;27.910;2023-03-18T03:34:23;101620.44;;;3.73;85.92
37368;BME280;23240;43.210;27.910;2023-03-18T03:36:49;101614.25;;;3.72;85.42
37368;BME280;23240;43.210;27.910;2023-03-18T03:39:14;101619.03;;;3.63;86.11
37368;BME280;23240;43.210;27.910;2023-03-18T03:41:40;101618.34;;;3.57;85.51
37368;BME280;23240;43.210;27.910;2023-03-18T03:44:05;101629.88;;;3.56;85.94
37368;BME280;23240;43.210;27.910;2023-03-18T03:46:30;101631.84;;;3.51;87.21
37368;BME280;23240;43.210;27.910;2023-03-18T03:48:56;101637.28;;;3.48;88.14
37368;BME280;23240;43.210;27.910;2023-03-18T03:51:21;101639.09;;;3.46;88.10
37368;BME280;23240;43.210;27.910;2023-03-18T03:53:48;101638.16;;;3.49;86.64
37368;BME280;23240;43.210;27.910;2023-03-18T03:56:13;101634.50;;;3.51;86.98
37368;BME280;23240;43.210;27.910;2023-03-18T03:58:39;101640.13;;;3.42;87.09
37368;BME280;23240;43.210;27.910;2023-03-18T04:01:04;101634.06;;;3.40;85.24
37368;BME280;23240;43.210;27.910;2023-03-18T04:03:30;101642.97;;;3.38;86.97
37368;BME280;23240;43.210;27.910;2023-03-18T04:05:56;101647.41;;;3.37;85.91
37368;BME280;23240;43.210;27.910;2023-03-18T04:08:21;101640.47;;;3.33;87.03
37368;BME280;23240;43.210;27.910;2023-03-18T04:10:46;101644.19;;;3.29;89.18
37368;BME280;23240;43.210;27.910;2023-03-18T04:13:13;101639.09;;;3.23;89.38
37368;BME280;23240;43.210;27.910;2023-03-18T04:15:38;101635.25;;;3.31;89.01
37368;BME280;23240;43.210;27.910;2023-03-18T04:18:04;101638.06;;;3.27;88.38
37368;BME280;23240;43.210;27.910;2023-03-18T04:20:34;101640.78;;;3.25;88.37
37368;BME280;23240;43.210;27.910;2023-03-18T04:22:59;101638.00;;;3.28;88.08
37368;BME280;23240;43.210;27.910;2023-03-18T04:25:25;101642.44;;;3.28;89.96
37368;BME280;23240;43.210;27.910;2023-03-18T04:27:50;101634.72;;;3.22;89.39
37368;BME280;23240;43.210;27.910;2023-03-18T04:30:19;101639.06;;;3.24;89.62
37368;BME280;23240;43.210;27.910;2023-03-18T04:32:44;101644.13;;;3.30;89.41
37368;BME280;23240;43.210;27.910;2023-03-18T04:35:10;101638.94;;;3.27;88.47
37368;BME280;23240;43.210;27.910;2023-03-18T04:37:35;101642.91;;;3.39;86.53
37368;BME280;23240;43.210;27.910;2023-03-18T04:40:01;101644.28;;;3.26;87.93
37368;BME280;23240;43.210;27.910;2023-03-18T04:42:26;101638.94;;;3.27;89.48
37368;BME280;23240;43.210;27.910;2023-03-18T04:44:52;101643.09;;;3.34;87.80
37368;BME280;23240;43.210;27.910;2023-03-18T04:47:17;101646.69;;;3.32;87.54
37368;BME280;23240;43.210;27.910;2023-03-18T04:49:43;101647.56;;;3.32;89.01
37368;BME280;23240;43.210;27.910;2023-03-18T04:52:09;101650.28;;;3.31;87.85
37368;BME280;23240;43.210;27.910;2023-03-18T04:54:34;101646.84;;;3.29;88.20
37368;BME280;23240;43.210;27.910;2023-03-18T04:57:01;101651.22;;;3.30;90.20
37368;BME280;23240;43.210;27.910;2023-03-18T04:59:26;101646.69;;;3.32;90.15
37368;BME280;23240;43.210;27.910;2023-03-18T05:01:52;101649.94;;;3.40;89.31
37368;BME280;23240;43.210;27.910;2023-03-18T05:04:18;101651.56;;;3.44;89.31
37368;BME280;23240;43.210;27.910;2023-03-18T05:06:43;101648.44;;;3.56;85.71
37368;BME280;23240;43.210;27.910;2023-03-18T05:09:08;101657.25;;;3.57;85.85
37368;BME280;23240;43.210;27.910;2023-03-18T05:11:34;101652.81;;;3.57;83.46
37368;BME280;23240;43.210;27.910;2023-03-18T05:13:59;101649.25;;;3.58;84.83
37368;BME280;23240;43.210;27.910;2023-03-18T05:16:24;101655.41;;;3.59;83.77
37368;BME280;23240;43.210;27.910;2023-03-18T05:18:50;101656.38;;;3.56;82.35
37368;BME280;23240;43.210;27.910;2023-03-18T05:21:16;101655.59;;;3.54;84.93
37368;BME280;23240;43.210;27.910;2023-03-18T05:23:41;101651.06;;;3.56;83.40
37368;BME280;23240;43.210;27.910;2023-03-18T05:26:07;101655.28;;;3.62;83.63
37368;BME280;23240;43.210;27.910;2023-03-18T05:28:33;101660.38;;;3.68;82.80
37368;BME280;23240;43.210;27.910;2023-03-18T05:30:59;101652.34;;;3.70;83.82
37368;BME280;23240;43.210;27.910;2023-03-18T05:33:24;101649.69;;;3.70;81.97
37368;BME280;23240;43.210;27.910;2023-03-18T05:35:50;101646.69;;;3.79;82.71
37368;BME280;23240;43.210;27.910;2023-03-18T05:38:15;101653.88;;;3.75;81.78
37368;BME280;23240;43.210;27.910;2023-03-18T05:40:41;101659.28;;;3.72;82.87
37368;BME280;23240;43.210;27.910;2023-03-18T05:43:07;101653.81;;;3.77;83.00
37368;BME280;23240;43.210;27.910;2023-03-18T05:45:32;101656.59;;;3.74;83.94
37368;BME280;23240;43.210;27.910;2023-03-18T05:47:58;101650.03;;;3.84;83.97
37368;BME280;23240;43.210;27.910;2023-03-18T05:50:34;101656.81;;;3.91;84.14
37368;BME280;23240;43.210;27.910;2023-03-18T05:53:00;101656.69;;;3.94;82.55
37368;BME280;23240;43.210;27.910;2023-03-18T05:55:26;101666.69;;;4.09;82.58
37368;BME280;23240;43.210;27.910;2023-03-18T05:57:52;101651.22;;;4.21;80.28
37368;BME280;23240;43.210;27.910;2023-03-18T06:00:18;101665.47;;;4.40;79.40
37368;BME280;23240;43.210;27.910;2023-03-18T06:02:43;101654.31;;;4.52;77.21
37368;BME280;23240;43.210;27.910;2023-03-18T06:05:09;101674.16;;;4.64;79.40
37368;BME280;23240;43.210;27.910;2023-03-18T06:07:34;101659.53;;;4.76;76.86
37368;BME280;23240;43.210;27.910;2023-03-18T06:10:00;101665.09;;;4.90;76.34
37368;BME280;23240;43.210;27.910;2023-03-18T06:12:26;101665.22;;;5.07;75.56
37368;BME280;23240;43.210;27.910;2023-03-18T06:14:52;101676.09;;;5.22;73.77
37368;BME280;23240;43.210;27.910;2023-03-18T06:17:18;101665.94;;;5.50;70.48
37368;BME280;23240;43.210;27.910;2023-03-18T06:19:44;101665.47;;;5.80;69.17
37368;BME280;23240;43.210;27.910;2023-03-18T06:22:09;101675.47;;;6.12;67.24
37368;BME280;23240;43.210;27.910;2023-03-18T06:24:35;101671.78;;;6.34;65.86
37368;BME280;23240;43.210;27.910;2023-03-18T06:27:00;101685.66;;;6.58;64.11
37368;BME280;23240;43.210;27.910;2023-03-18T06:29:26;101669.28;;;6.65;63.16
37368;BME280;23240;43.210;27.910;2023-03-18T06:31:51;101677.50;;;6.95;62.52
37368;BME280;23240;43.210;27.910;2023-03-18T06:34:17;101669.28;;;7.17;61.52
37368;BME280;23240;43.210;27.910;2023-03-18T06:36:43;101676.19;;;7.55;61.10
37368;BME280;23240;43.210;27.910;2023-03-18T06:39:08;101675.25;;;7.71;59.27
37368;BME280;23240;43.210;27.910;2023-03-18T06:41:34;101674.31;;;8.20;58.21
37368;BME280;23240;43.210;27.910;2023-03-18T06:44:00;101670.00;;;8.49;57.00
37368;BME280;23240;43.210;27.910;2023-03-18T06:46:25;101675.97;;;7.91;58.05
37368;BME280;23240;43.210;27.910;2023-03-18T06:48:50;101670.75;;;8.37;57.63
37368;BME280;23240;43.210;27.910;2023-03-18T06:51:16;101666.75;;;8.44;57.51
37368;BME280;23240;43.210;27.910;2023-03-18T06:53:41;101664.34;;;8.69;56.09
37368;BME280;23240;43.210;27.910;2023-03-18T06:56:07;101664.00;;;9.34;54.69
37368;BME280;23240;43.210;27.910;2023-03-18T06:58:33;101667.44;;;9.65;53.32
37368;BME280;23240;43.210;27.910;2023-03-18T07:00:59;101681.00;;;9.19;54.46
37368;BME280;23240;43.210;27.910;2023-03-18T07:03:25;101669.34;;;9.20;53.78
37368;BME280;23240;43.210;27.910;2023-03-18T07:05:52;101657.19;;;9.71;53.94
37368;BME280;23240;43.210;27.910;2023-03-18T07:08:18;101661.72;;;10.12;52.90
37368;BME280;23240;43.210;27.910;2023-03-18T07:10:43;101662.50;;;9.44;54.10
37368;BME280;23240;43.210;27.910;2023-03-18T07:13:09;101672.81;;;8.92;56.43
37368;BME280;23240;43.210;27.910;2023-03-18T07:15:34;101664.63;;;8.95;57.40
37368;BME280;23240;43.210;27.910;2023-03-18T07:18:00;101663.13;;;8.29;58.89
37368;BME280;23240;43.210;27.910;2023-03-18T07:20:26;101673.53;;;8.34;59.29
37368;BME280;23240;43.210;27.910;2023-03-18T07:22:52;101671.78;;;8.64;58.78
37368;BME280;23240;43.210;27.910;2023-03-18T07:25:18;101672.25;;;8.87;58.59
37368;BME280;23240;43.210;27.910;2023-03-18T07:27:43;101680.00;;;8.61;59.11
37368;BME280;23240;43.210;27.910;2023-03-18T07:30:09;101688.78;;;8.32;60.14
37368;BME280;23240;43.210;27.910;2023-03-18T07:32:35;101674.50;;;8.33;61.81
37368;BME280;23240;43.210;27.910;2023-03-18T07:35:02;101678.56;;;8.40;60.88
37368;BME280;23240;43.210;27.910;2023-03-18T07:37:28;101675.78;;;8.25;60.94
37368;BME280;23240;43.210;27.910;2023-03-18T07:39:54;101677.91;;;8.66;60.63
37368;BME280;23240;43.210;27.910;2023-03-18T07:42:20;101680.00;;;8.61;60.13
37368;BME280;23240;43.210;27.910;2023-03-18T07:44:45;101670.47;;;8.71;60.22
37368;BME280;23240;43.210;27.910;2023-03-18T07:47:10;101668.09;;;9.11;59.57
37368;BME280;23240;43.210;27.910;2023-03-18T07:49:38;101672.97;;;9.05;58.98
37368;BME280;23240;43.210;27.910;2023-03-18T07:52:03;101672.31;;;9.15;59.06
37368;BME280;23240;43.210;27.910;2023-03-18T07:54:29;101666.59;;;9.36;58.08
37368;BME280;23240;43.210;27.910;2023-03-18T07:56:54;101670.00;;;9.38;58.42
37368;BME280;23240;43.210;27.910;2023-03-18T07:59:20;101681.38;;;8.83;60.50
37368;BME280;23240;43.210;27.910;2023-03-18T08:01:46;101679.34;;;9.02;60.60
37368;BME280;23240;43.210;27.910;2023-03-18T08:04:11;101681.66;;;8.78;61.82
37368;BME280;23240;43.210;27.910;2023-03-18T08:06:37;101678.03;;;8.79;62.35
37368;BME280;23240;43.210;27.910;2023-03-18T08:09:03;101672.66;;;8.95;62.76
37368;BME280;23240;43.210;27.910;2023-03-18T08:11:29;101669.75;;;8.84;63.58
37368;BME280;23240;43.210;27.910;2023-03-18T08:13:54;101674.38;;;8.96;63.82
37368;BME280;23240;43.210;27.910;2023-03-18T08:16:19;101660.78;;;8.55;66.39
37368;BME280;23240;43.210;27.910;2023-03-18T08:18:45;101661.88;;;8.66;68.48
37368;BME280;23240;43.210;27.910;2023-03-18T08:21:10;101672.03;;;8.75;68.69
37368;BME280;23240;43.210;27.910;2023-03-18T08:23:36;101686.56;;;8.86;68.62
37368;BME280;23240;43.210;27.910;2023-03-18T08:26:01;101670.28;;;8.74;70.59
37368;BME280;23240;43.210;27.910;2023-03-18T08:28:26;101667.19;;;8.96;70.19
37368;BME280;23240;43.210;27.910;2023-03-18T08:30:52;101660.25;;;9.22;69.47
37368;BME280;23240;43.210;27.910;2023-03-18T08:33:18;101661.97;;;9.66;67.79
37368;BME280;23240;43.210;27.910;2023-03-18T08:35:43;101667.84;;;10.00;65.51
37368;BME280;23240;43.210;27.910;2023-03-18T08:38:08;101662.16;;;9.92;64.43
37368;BME280;23240;43.210;27.910;2023-03-18T08:40:34;101676.53;;;9.48;67.03
37368;BME280;23240;43.210;27.910;2023-03-18T08:42:59;101667.53;;;9.77;66.34
37368;BME280;23240;43.210;27.910;2023-03-18T08:45:24;101674.81;;;10.17;64.72
37368;BME280;23240;43.210;27.910;2023-03-18T08:47:51;101680.81;;;9.79;66.74
37368;BME280;23240;43.210;27.910;2023-03-18T08:50:17;101674.59;;;9.50;68.77
37368;BME280;23240;43.210;27.910;2023-03-18T08:52:43;101675.34;;;9.38;68.79
37368;BME280;23240;43.210;27.910;2023-03-18T08:55:08;101676.59;;;9.32;71.33
37368;BME280;23240;43.210;27.910;2023-03-18T08:57:34;101676.22;;;9.10;73.37
37368;BME280;23240;43.210;27.910;2023-03-18T09:00:00;101666.16;;;8.99;74.99
37368;BME280;23240;43.210;27.910;2023-03-18T09:02:25;101673.00;;;8.89;76.42
37368;BME280;23240;43.210;27.910;2023-03-18T09:04:52;101673.75;;;8.77;79.07
37368;BME280;23240;43.210;27.910;2023-03-18T09:07:17;101677.84;;;8.82;79.21
37368;BME280;23240;43.210;27.910;2023-03-18T09:09:43;101668.63;;;8.88;78.86
37368;BME280;23240;43.210;27.910;2023-03-18T09:12:08;101673.94;;;8.88;79.06
37368;BME280;23240;43.210;27.910;2023-03-18T09:14:35;101670.91;;;8.94;79.13
37368;BME280;23240;43.210;27.910;2023-03-18T09:17:01;101673.19;;;8.86;82.33
37368;BME280;23240;43.210;27.910;2023-03-18T09:19:26;101666.81;;;9.02;81.45
37368;BME280;23240;43.210;27.910;2023-03-18T09:21:52;101657.78;;;9.05;80.72
37368;BME280;23240;43.210;27.910;2023-03-18T09:24:17;101665.44;;;9.25;80.57
37368;BME280;23240;43.210;27.910;2023-03-18T09:26:42;101657.13;;;9.30;79.24
37368;BME280;23240;43.210;27.910;2023-03-18T09:29:08;101661.63;;;9.30;81.05
37368;BME280;23240;43.210;27.910;2023-03-18T09:31:33;101670.59;;;9.29;79.74
37368;BME280;23240;43.210;27.910;2023-03-18T09:33:58;101655.09;;;9.05;82.03
37368;BME280;23240;43.210;27.910;2023-03-18T09:36:24;101654.31;;;9.03;82.98
37368;BME280;23240;43.210;27.910;2023-03-18T09:38:49;101655.19;;;9.04;82.93
37368;BME280;23240;43.210;27.910;2023-03-18T09:41:21;101657.78;;;9.05;84.77
37368;BME280;23240;43.210;27.910;2023-03-18T09:48:54;101653.41;;;9.47;83.88
37368;BME280;23240;43.210;27.910;2023-03-18T09:54:00;101660.94;;;9.40;84.04
37368;BME280;23240;43.210;27.910;2023-03-18T09:56:30;101655.50;;;9.70;81.65
37368;BME280;23240;43.210;27.910;2023-03-18T09:59:03;101650.91;;;9.87;79.92
37368;BME280;23240;43.210;27.910;2023-03-18T10:01:30;101654.81;;;9.67;82.56
37368;BME280;23240;43.210;27.910;2023-03-18T10:04:02;101656.25;;;9.01;91.34
37368;BME280;23240;43.210;27.910;2023-03-18T10:06:29;101663.00;;;8.92;97.57
37368;BME280;23240;43.210;27.910;2023-03-18T10:09:14;101657.66;;;8.92;97.63
37368;BME280;23240;43.210;27.910;2023-03-18T10:11:46;101654.13;;;8.92;98.45
37368;BME280;23240;43.210;27.910;2023-03-18T10:19:17;101656.03;;;9.04;98.06
37368;BME280;23240;43.210;27.910;2023-03-18T10:27:13;101639.38;;;9.43;93.92
37368;BME280;23240;43.210;27.910;2023-03-18T10:30:45;101630.72;;;9.67;93.55
37368;BME280;23240;43.210;27.910;2023-03-18T10:32:40;101640.94;;;9.89;89.15
37368;BME280;23240;43.210;27.910;2023-03-18T10:35:17;101640.84;;;9.76;88.37
37368;BME280;23240;43.210;27.910;2023-03-18T10:38:03;101636.56;;;9.73;88.80
37368;BME280;23240;43.210;27.910;2023-03-18T10:40:34;101638.88;;;9.22;93.24
37368;BME280;23240;43.210;27.910;2023-03-18T10:43:00;101636.00;;;9.11;96.61
37368;BME280;23240;43.210;27.910;2023-03-18T10:45:27;101640.00;;;9.04;99.18
37368;BME280;23240;43.210;27.910;2023-03-18T10:48:03;101647.09;;;9.05;99.00
37368;BME280;23240;43.210;27.910;2023-03-18T10:50:41;101633.13;;;8.86;99.63
37368;BME280;23240;43.210;27.910;2023-03-18T10:53:13;101634.81;;;8.72;100.00
37368;BME280;23240;43.210;27.910;2023-03-18T10:55:52;101636.63;;;8.42;100.00
37368;BME280;23240;43.210;27.910;2023-03-18T10:58:19;101641.69;;;8.46;100.00
37368;BME280;23240;43.210;27.910;2023-03-18T11:00:44;101619.91;;;8.38;100.00
37368;BME280;23240;43.210;27.910;2023-03-18T11:05:45;101618.31;;;8.50;100.00
37368;BME280;23240;43.210;27.910;2023-03-18T11:08:26;101615.06;;;8.45;100.00
37368;BME280;23240;43.210;27.910;2023-03-18T11:10:58;101614.09;;;8.62;100.00
37368;BME280;23240;43.210;27.910;2023-03-18T11:13:26;101605.72;;;8.38;100.00
37368;BME280;23240;43.210;27.910;2023-03-18T11:15:51;101606.47;;;8.40;100.00
37368;BME280;23240;43.210;27.910;2023-03-18T11:18:20;101602.94;;;8.39;100.00
37368;BME280;23240;43.210;27.910;2023-03-18T11:20:46;101604.81;;;8.53;100.00
37368;BME280;23240;43.210;27.910;2023-03-18T11:23:14;101603.03;;;8.68;100.00
37368;BME280;23240;43.210;27.910;2023-03-18T11:25:44;101602.47;;;8.77;100.00
37368;BME280;23240;43.210;27.910;2023-03-18T11:28:18;101610.38;;;8.79;100.00
37368;BME280;23240;43.210;27.910;2023-03-18T11:30:50;101601.88;;;8.72;100.00
37368;BME280;23240;43.210;27.910;2023-03-18T11:33:22;101601.22;;;8.68;100.00
37368;BME280;23240;43.210;27.910;2023-03-18T11:35:56;101607.72;;;8.79;100.00
37368;BME280;23240;43.210;27.910;2023-03-18T11:38:26;101605.38;;;9.02;100.00
37368;BME280;23240;43.210;27.910;2023-03-18T11:40:56;101607.94;;;9.04;100.00
37368;BME280;23240;43.210;27.910;2023-03-18T11:43:29;101602.88;;;8.85;100.00
37368;BME280;23240;43.210;27.910;2023-03-18T11:45:58;101605.81;;;8.81;100.00
37368;BME280;23240;43.210;27.910;2023-03-18T11:53:30;101598.72;;;8.51;100.00
37368;BME280;23240;43.210;27.910;2023-03-18T11:56:05;101605.38;;;8.58;100.00
37368;BME280;23240;43.210;27.910;2023-03-18T11:58:38;101603.56;;;8.59;100.00
37368;BME280;23240;43.210;27.910;2023-03-18T12:06:25;101599.91;;;8.45;100.00
37368;BME280;23240;43.210;27.910;2023-03-18T12:11:21;101583.22;;;8.42;100.00
37368;BME280;23240;43.210;27.910;2023-03-18T12:27:32;101583.81;;;8.31;100.00
37368;BME280;23240;43.210;27.910;2023-03-18T12:32:30;101590.78;;;8.34;100.00
37368;BME280;23240;43.210;27.910;2023-03-18T12:35:16;101591.41;;;8.39;100.00
37368;BME280;23240;43.210;27.910;2023-03-18T12:45:38;101602.94;;;8.23;100.00
37368;BME280;23240;43.210;27.910;2023-03-18T12:48:23;101609.16;;;8.24;100.00
37368;BME280;23240;43.210;27.910;2023-03-18T12:53:21;101606.91;;;8.16;100.00
37368;BME280;23240;43.210;27.910;2023-03-18T12:55:50;101600.75;;;8.00;100.00
37368;BME280;23240;43.210;27.910;2023-03-18T12:58:30;101601.97;;;7.94;100.00
37368;BME280;23240;43.210;27.910;2023-03-18T13:00:58;101591.66;;;7.88;100.00
37368;BME280;23240;43.210;27.910;2023-03-18T13:03:40;101596.00;;;7.73;100.00
37368;BME280;23240;43.210;27.910;2023-03-18T13:13:59;101594.03;;;7.45;100.00
37368;BME280;23240;43.210;27.910;2023-03-18T13:16:26;101599.00;;;7.36;100.00
37368;BME280;23240;43.210;27.910;2023-03-18T13:18:54;101589.13;;;7.38;100.00
37368;BME280;23240;43.210;27.910;2023-03-18T13:21:22;101599.78;;;7.38;100.00
37368;BME280;23240;43.210;27.910;2023-03-18T13:30:00;101611.06;;;7.10;100.00
37368;BME280;23240;43.210;27.910;2023-03-18T13:42:28;101592.84;;;6.85;100.00
37368;BME280;23240;43.210;27.910;2023-03-18T13:47:20;101584.53;;;6.91;100.00
37368;BME280;23240;43.210;27.910;2023-03-18T13:49:46;101581.47;;;6.99;100.00
37368;BME280;23240;43.210;27.910;2023-03-18T13:52:20;101584.28;;;6.95;100.00
37368;BME280;23240;43.210;27.910;2023-03-18T13:54:47;101584.75;;;7.04;100.00
37368;BME280;23240;43.210;27.910;2023-03-18T13:57:16;101583.41;;;7.12;100.00
37368;BME280;23240;43.210;27.910;2023-03-18T13:59:43;101585.97;;;7.14;100.00
37368;BME280;23240;43.210;27.910;2023-03-18T14:04:53;101589.09;;;7.22;100.00
37368;BME280;23240;43.210;27.910;2023-03-18T14:07:21;101591.84;;;7.20;100.00
37368;BME280;23240;43.210;27.910;2023-03-18T14:09:54;101587.28;;;7.22;100.00
37368;BME280;23240;43.210;27.910;2023-03-18T14:17:40;101582.56;;;7.12;100.00
37368;BME280;23240;43.210;27.910;2023-03-18T14:22:46;101579.19;;;7.08;100.00
37368;BME280;23240;43.210;27.910;2023-03-18T14:33:00;101578.69;;;6.84;100.00
37368;BME280;23240;43.210;27.910;2023-03-18T14:35:34;101571.09;;;6.77;100.00
37368;BME280;23240;43.210;27.910;2023-03-18T14:40:43;101594.19;;;6.76;100.00
37368;BME280;23240;43.210;27.910;2023-03-18T14:43:13;101589.34;;;6.84;100.00
37368;BME280;23240;43.210;27.910;2023-03-18T14:45:42;101587.19;;;6.91;100.00